메인 페이지
METAR-TAF:

METAR-TAF

공항 :

에센보아 국제공항

앙카라 Esenboğa, 터키

위도: 40-07N, 경도: 032-59E, 고도: 953m

현재 날씨관측

예보는 43분 전, 11:20시(UTC)에 발표되었습니다.
7kt서북서풍과 북동풍을 오가는
온도 21°C
습도 40%
기압 1016 hPa
시정 10km 이상
고도 4000ft 상공 구름 보통

METAR: LTAC 201120Z 01007KT 300V050 9999 SCT040 21/07 Q1016 NOSIG RMK RWY21L 01007KT 280V070 RWY03L 03006KT 330V070 RWY21R 35005KT 280V060

시각: 15:03 (12:03 UTC)

예보

예보는 1 시간 23분 전, 10:40시(UTC)에 발표되었습니다.
예보 대상 시간: 20일 12시부터 21일 12시까지 (UTC)
여러 방향의 바람 2kt
시정 10km 이상
고도 4000ft 상공 구름 보통
확률 40% :
일시적
20일 15시부터 20일 19시까지 (UTC)
서남서15kt, 순간 최대 풍속 25kt
고도 2500ft 상공 구름 조금, 적란운.
고도 3000ft 상공 구름 많음
뇌우, 약한비
일시적
20일 20시부터 20일 24시까지 (UTC)
고도 3000ft 상공 구름 많음
고도 9000ft 상공 구름 많음
약한소나기
일시적
21일 02시부터 21일 06시까지 (UTC)
고도 3000ft 상공 구름 많음
고도 9000ft 상공 구름 많음
약한소나기

TAF: LTAC 201040Z 2012/2112 VRB02KT 9999 SCT040 PROB40 TEMPO 2015/2019 25015G25KT -TSRA FEW025CB BKN030 TEMPO 2020/2024 -SHRA BKN030 BKN090 TEMPO 2102/2106 -SHRA BKN030 BKN090

4,000개 이상의 공항 관측 자료 및 예보 (METAR 및 TAF 보고).

지도상에서 검색 가능한 기상관측소가 노란 점과 빨간 점으로 표시되어 있습니다.

기상관측소 명을 보려면 표시 위로 마우스를 이동하세요.

날씨 관측과 예보를 보려면 클릭하세요.

지도 변경 : 확대하려면 엑스 표시가 있는 녹색 버튼, 축소하려면 빼기 표시가 있는 녹색 버튼, 다음 페이지의 지도를 보려면 녹색 화살표를 클릭하세요.


METAR-TAF: